sensor_id;sensor_type;location;lat;lon;timestamp;P1;durP1;ratioP1;P2;durP2;ratioP2
11829;SDS011;5972;42.134;24.718;2022-12-07T00:00:13;28.97;;;15.73;;
11829;SDS011;5972;42.134;24.718;2022-12-07T00:02:40;22.43;;;12.23;;
11829;SDS011;5972;42.134;24.718;2022-12-07T00:05:07;24.53;;;13.53;;
11829;SDS011;5972;42.134;24.718;2022-12-07T00:07:34;27.20;;;16.23;;
11829;SDS011;5972;42.134;24.718;2022-12-07T00:10:02;21.27;;;13.13;;
11829;SDS011;5972;42.134;24.718;2022-12-07T00:12:30;22.90;;;13.20;;
11829;SDS011;5972;42.134;24.718;2022-12-07T00:14:56;23.30;;;13.70;;
11829;SDS011;5972;42.134;24.718;2022-12-07T00:17:23;23.03;;;14.57;;
11829;SDS011;5972;42.134;24.718;2022-12-07T00:19:50;30.30;;;17.23;;
11829;SDS011;5972;42.134;24.718;2022-12-07T00:22:16;28.63;;;17.00;;
11829;SDS011;5972;42.134;24.718;2022-12-07T00:24:43;32.17;;;19.53;;
11829;SDS011;5972;42.134;24.718;2022-12-07T00:27:11;36.23;;;21.33;;
11829;SDS011;5972;42.134;24.718;2022-12-07T00:29:38;38.63;;;22.03;;
11829;SDS011;5972;42.134;24.718;2022-12-07T00:32:05;41.77;;;21.40;;
11829;SDS011;5972;42.134;24.718;2022-12-07T00:34:32;35.87;;;21.37;;
11829;SDS011;5972;42.134;24.718;2022-12-07T00:36:59;39.67;;;21.60;;
11829;SDS011;5972;42.134;24.718;2022-12-07T00:39:25;41.47;;;20.57;;
11829;SDS011;5972;42.134;24.718;2022-12-07T00:41:52;36.93;;;18.43;;
11829;SDS011;5972;42.134;24.718;2022-12-07T00:44:20;42.13;;;19.87;;
11829;SDS011;5972;42.134;24.718;2022-12-07T00:46:47;36.00;;;18.40;;
11829;SDS011;5972;42.134;24.718;2022-12-07T00:49:14;40.70;;;18.07;;
11829;SDS011;5972;42.134;24.718;2022-12-07T00:51:40;38.27;;;17.67;;
11829;SDS011;5972;42.134;24.718;2022-12-07T00:54:07;43.83;;;19.33;;
11829;SDS011;5972;42.134;24.718;2022-12-07T00:56:34;46.53;;;20.20;;
11829;SDS011;5972;42.134;24.718;2022-12-07T00:59:01;32.53;;;19.53;;
11829;SDS011;5972;42.134;24.718;2022-12-07T01:01:31;31.33;;;20.47;;
11829;SDS011;5972;42.134;24.718;2022-12-07T01:04:00;42.23;;;19.27;;
11829;SDS011;5972;42.134;24.718;2022-12-07T01:06:27;35.70;;;19.50;;
11829;SDS011;5972;42.134;24.718;2022-12-07T01:08:55;40.53;;;21.07;;
11829;SDS011;5972;42.134;24.718;2022-12-07T01:11:22;39.90;;;21.43;;
11829;SDS011;5972;42.134;24.718;2022-12-07T01:13:50;37.30;;;23.60;;
11829;SDS011;5972;42.134;24.718;2022-12-07T01:16:18;43.77;;;23.27;;
11829;SDS011;5972;42.134;24.718;2022-12-07T01:18:48;45.10;;;21.17;;
11829;SDS011;5972;42.134;24.718;2022-12-07T01:21:17;33.63;;;20.00;;
11829;SDS011;5972;42.134;24.718;2022-12-07T01:23:46;36.57;;;21.87;;
11829;SDS011;5972;42.134;24.718;2022-12-07T01:26:15;47.30;;;25.60;;
11829;SDS011;5972;42.134;24.718;2022-12-07T01:28:43;37.30;;;23.87;;
11829;SDS011;5972;42.134;24.718;2022-12-07T01:31:11;35.27;;;22.43;;
11829;SDS011;5972;42.134;24.718;2022-12-07T01:33:40;39.10;;;22.23;;
11829;SDS011;5972;42.134;24.718;2022-12-07T01:36:13;31.97;;;22.37;;
11829;SDS011;5972;42.134;24.718;2022-12-07T01:38:42;45.17;;;21.57;;
11829;SDS011;5972;42.134;24.718;2022-12-07T01:41:09;36.67;;;21.67;;
11829;SDS011;5972;42.134;24.718;2022-12-07T01:43:36;38.93;;;22.00;;
11829;SDS011;5972;42.134;24.718;2022-12-07T01:46:03;34.80;;;21.93;;
11829;SDS011;5972;42.134;24.718;2022-12-07T01:48:31;37.03;;;21.60;;
11829;SDS011;5972;42.134;24.718;2022-12-07T01:51:00;32.10;;;21.00;;
11829;SDS011;5972;42.134;24.718;2022-12-07T01:53:33;35.67;;;19.67;;
11829;SDS011;5972;42.134;24.718;2022-12-07T01:56:04;31.33;;;19.77;;
11829;SDS011;5972;42.134;24.718;2022-12-07T01:58:34;31.27;;;19.07;;
11829;SDS011;5972;42.134;24.718;2022-12-07T02:01:01;27.90;;;17.97;;
11829;SDS011;5972;42.134;24.718;2022-12-07T02:03:30;27.23;;;17.90;;
11829;SDS011;5972;42.134;24.718;2022-12-07T02:06:02;32.97;;;18.30;;
11829;SDS011;5972;42.134;24.718;2022-12-07T02:08:30;29.60;;;18.57;;
11829;SDS011;5972;42.134;24.718;2022-12-07T02:10:59;26.20;;;17.67;;
11829;SDS011;5972;42.134;24.718;2022-12-07T02:13:28;29.10;;;18.93;;
11829;SDS011;5972;42.134;24.718;2022-12-07T02:16:02;29.23;;;18.33;;
11829;SDS011;5972;42.134;24.718;2022-12-07T02:18:44;32.07;;;17.03;;
11829;SDS011;5972;42.134;24.718;2022-12-07T02:21:24;32.37;;;19.60;;
11829;SDS011;5972;42.134;24.718;2022-12-07T02:24:09;28.83;;;19.40;;
11829;SDS011;5972;42.134;24.718;2022-12-07T02:29:42;28.87;;;17.60;;
11829;SDS011;5972;42.134;24.718;2022-12-07T02:32:16;33.30;;;18.23;;
11829;SDS011;5972;42.134;24.718;2022-12-07T02:34:50;28.50;;;17.60;;
11829;SDS011;5972;42.134;24.718;2022-12-07T02:37:27;37.97;;;18.90;;
11829;SDS011;5972;42.134;24.718;2022-12-07T02:40:02;40.73;;;26.33;;
11829;SDS011;5972;42.134;24.718;2022-12-07T02:42:36;37.50;;;24.97;;
11829;SDS011;5972;42.134;24.718;2022-12-07T02:45:10;39.10;;;24.57;;
11829;SDS011;5972;42.134;24.718;2022-12-07T02:47:40;36.47;;;22.07;;
11829;SDS011;5972;42.134;24.718;2022-12-07T02:50:09;26.00;;;17.53;;
11829;SDS011;5972;42.134;24.718;2022-12-07T02:52:37;25.73;;;15.43;;
11829;SDS011;5972;42.134;24.718;2022-12-07T02:55:04;25.97;;;14.67;;
11829;SDS011;5972;42.134;24.718;2022-12-07T02:57:37;25.93;;;15.50;;
11829;SDS011;5972;42.134;24.718;2022-12-07T03:00:15;22.07;;;13.03;;
11829;SDS011;5972;42.134;24.718;2022-12-07T03:02:46;21.00;;;12.47;;
11829;SDS011;5972;42.134;24.718;2022-12-07T03:05:27;20.43;;;11.83;;
11829;SDS011;5972;42.134;24.718;2022-12-07T03:08:09;15.47;;;10.20;;
11829;SDS011;5972;42.134;24.718;2022-12-07T03:10:42;15.03;;;9.67;;
11829;SDS011;5972;42.134;24.718;2022-12-07T03:13:19;20.97;;;10.47;;
11829;SDS011;5972;42.134;24.718;2022-12-07T03:15:53;17.87;;;9.97;;
11829;SDS011;5972;42.134;24.718;2022-12-07T03:18:25;16.30;;;9.43;;
11829;SDS011;5972;42.134;24.718;2022-12-07T03:20:57;18.80;;;11.30;;
11829;SDS011;5972;42.134;24.718;2022-12-07T03:23:28;21.17;;;11.00;;
11829;SDS011;5972;42.134;24.718;2022-12-07T03:26:00;20.10;;;11.43;;
11829;SDS011;5972;42.134;24.718;2022-12-07T03:28:28;18.10;;;11.47;;
11829;SDS011;5972;42.134;24.718;2022-12-07T03:31:01;17.27;;;10.27;;
11829;SDS011;5972;42.134;24.718;2022-12-07T03:33:32;15.23;;;10.13;;
11829;SDS011;5972;42.134;24.718;2022-12-07T03:36:04;20.00;;;11.47;;
11829;SDS011;5972;42.134;24.718;2022-12-07T03:38:36;19.33;;;12.47;;
11829;SDS011;5972;42.134;24.718;2022-12-07T03:41:08;22.43;;;12.27;;
11829;SDS011;5972;42.134;24.718;2022-12-07T03:43:38;23.47;;;11.93;;
11829;SDS011;5972;42.134;24.718;2022-12-07T03:46:11;22.43;;;11.27;;
11829;SDS011;5972;42.134;24.718;2022-12-07T03:48:46;20.17;;;11.00;;
11829;SDS011;5972;42.134;24.718;2022-12-07T03:51:21;22.60;;;11.03;;
11829;SDS011;5972;42.134;24.718;2022-12-07T03:53:57;22.53;;;11.17;;
11829;SDS011;5972;42.134;24.718;2022-12-07T03:56:26;18.93;;;10.63;;
11829;SDS011;5972;42.134;24.718;2022-12-07T03:58:55;15.23;;;9.50;;
11829;SDS011;5972;42.134;24.718;2022-12-07T04:01:23;12.83;;;8.23;;
11829;SDS011;5972;42.134;24.718;2022-12-07T04:03:51;19.57;;;9.37;;
11829;SDS011;5972;42.134;24.718;2022-12-07T04:06:18;14.87;;;8.80;;
11829;SDS011;5972;42.134;24.718;2022-12-07T04:08:44;22.87;;;10.70;;
11829;SDS011;5972;42.134;24.718;2022-12-07T04:11:11;15.37;;;8.63;;
11829;SDS011;5972;42.134;24.718;2022-12-07T04:13:38;13.83;;;8.10;;
11829;SDS011;5972;42.134;24.718;2022-12-07T04:16:19;19.50;;;8.27;;
11829;SDS011;5972;42.134;24.718;2022-12-07T04:18:47;14.17;;;9.50;;
11829;SDS011;5972;42.134;24.718;2022-12-07T04:21:14;18.50;;;9.23;;
11829;SDS011;5972;42.134;24.718;2022-12-07T04:23:41;15.60;;;7.97;;
11829;SDS011;5972;42.134;24.718;2022-12-07T04:26:08;16.00;;;9.43;;
11829;SDS011;5972;42.134;24.718;2022-12-07T04:28:34;18.00;;;9.93;;
11829;SDS011;5972;42.134;24.718;2022-12-07T04:31:01;15.57;;;8.47;;
11829;SDS011;5972;42.134;24.718;2022-12-07T04:33:28;14.07;;;8.40;;
11829;SDS011;5972;42.134;24.718;2022-12-07T04:35:56;14.67;;;8.60;;
11829;SDS011;5972;42.134;24.718;2022-12-07T04:38:23;12.70;;;8.60;;
11829;SDS011;5972;42.134;24.718;2022-12-07T04:40:49;16.93;;;9.27;;
11829;SDS011;5972;42.134;24.718;2022-12-07T04:43:16;12.80;;;9.17;;
11829;SDS011;5972;42.134;24.718;2022-12-07T04:45:45;15.47;;;9.53;;
11829;SDS011;5972;42.134;24.718;2022-12-07T04:48:12;15.30;;;9.77;;
11829;SDS011;5972;42.134;24.718;2022-12-07T04:50:39;15.90;;;10.10;;
11829;SDS011;5972;42.134;24.718;2022-12-07T04:53:07;16.63;;;10.17;;
11829;SDS011;5972;42.134;24.718;2022-12-07T04:55:34;21.67;;;11.50;;
11829;SDS011;5972;42.134;24.718;2022-12-07T04:58:01;19.67;;;11.30;;
11829;SDS011;5972;42.134;24.718;2022-12-07T05:00:28;21.00;;;12.63;;
11829;SDS011;5972;42.134;24.718;2022-12-07T05:02:54;19.87;;;12.20;;
11829;SDS011;5972;42.134;24.718;2022-12-07T05:05:21;16.63;;;11.27;;
11829;SDS011;5972;42.134;24.718;2022-12-07T05:07:49;22.50;;;11.83;;
11829;SDS011;5972;42.134;24.718;2022-12-07T05:10:17;28.00;;;12.70;;
11829;SDS011;5972;42.134;24.718;2022-12-07T05:12:44;26.43;;;13.83;;
11829;SDS011;5972;42.134;24.718;2022-12-07T05:15:11;31.57;;;14.30;;
11829;SDS011;5972;42.134;24.718;2022-12-07T05:17:38;43.37;;;18.10;;
11829;SDS011;5972;42.134;24.718;2022-12-07T05:20:05;32.33;;;16.53;;
11829;SDS011;5972;42.134;24.718;2022-12-07T05:22:33;40.57;;;16.90;;
11829;SDS011;5972;42.134;24.718;2022-12-07T05:25:00;38.90;;;19.13;;
11829;SDS011;5972;42.134;24.718;2022-12-07T05:27:28;20.00;;;12.33;;
11829;SDS011;5972;42.134;24.718;2022-12-07T05:29:55;22.90;;;13.57;;
11829;SDS011;5972;42.134;24.718;2022-12-07T05:32:21;23.93;;;13.50;;
11829;SDS011;5972;42.134;24.718;2022-12-07T05:34:52;32.17;;;14.43;;
11829;SDS011;5972;42.134;24.718;2022-12-07T05:37:19;25.90;;;13.63;;
11829;SDS011;5972;42.134;24.718;2022-12-07T05:39:46;27.83;;;13.87;;
11829;SDS011;5972;42.134;24.718;2022-12-07T05:42:13;36.80;;;13.60;;
11829;SDS011;5972;42.134;24.718;2022-12-07T05:44:42;31.53;;;13.47;;
11829;SDS011;5972;42.134;24.718;2022-12-07T05:47:10;31.70;;;14.97;;
11829;SDS011;5972;42.134;24.718;2022-12-07T05:49:38;30.17;;;15.17;;
11829;SDS011;5972;42.134;24.718;2022-12-07T05:52:05;30.07;;;14.63;;
11829;SDS011;5972;42.134;24.718;2022-12-07T05:54:32;27.40;;;14.83;;
11829;SDS011;5972;42.134;24.718;2022-12-07T05:56:59;34.57;;;15.27;;
11829;SDS011;5972;42.134;24.718;2022-12-07T05:59:25;32.33;;;15.77;;
11829;SDS011;5972;42.134;24.718;2022-12-07T06:01:54;38.10;;;15.43;;
11829;SDS011;5972;42.134;24.718;2022-12-07T06:04:23;29.10;;;15.53;;
11829;SDS011;5972;42.134;24.718;2022-12-07T06:06:50;32.90;;;15.30;;
11829;SDS011;5972;42.134;24.718;2022-12-07T06:09:18;36.63;;;13.73;;
11829;SDS011;5972;42.134;24.718;2022-12-07T06:11:46;31.50;;;14.60;;
11829;SDS011;5972;42.134;24.718;2022-12-07T06:14:30;37.20;;;14.63;;
11829;SDS011;5972;42.134;24.718;2022-12-07T06:16:58;34.93;;;14.97;;
11829;SDS011;5972;42.134;24.718;2022-12-07T06:19:25;28.77;;;14.10;;
11829;SDS011;5972;42.134;24.718;2022-12-07T06:21:52;43.90;;;16.77;;
11829;SDS011;5972;42.134;24.718;2022-12-07T06:24:20;48.30;;;22.37;;
11829;SDS011;5972;42.134;24.718;2022-12-07T06:26:47;36.57;;;18.37;;
11829;SDS011;5972;42.134;24.718;2022-12-07T06:29:14;36.60;;;16.27;;
11829;SDS011;5972;42.134;24.718;2022-12-07T06:31:42;33.37;;;14.47;;
11829;SDS011;5972;42.134;24.718;2022-12-07T06:34:12;33.50;;;14.83;;
11829;SDS011;5972;42.134;24.718;2022-12-07T06:36:41;35.83;;;15.27;;
11829;SDS011;5972;42.134;24.718;2022-12-07T06:39:07;39.47;;;15.17;;
11829;SDS011;5972;42.134;24.718;2022-12-07T06:41:35;46.57;;;17.93;;
11829;SDS011;5972;42.134;24.718;2022-12-07T06:44:02;33.70;;;17.53;;
11829;SDS011;5972;42.134;24.718;2022-12-07T06:46:29;38.73;;;16.37;;
11829;SDS011;5972;42.134;24.718;2022-12-07T06:48:56;40.63;;;18.27;;
11829;SDS011;5972;42.134;24.718;2022-12-07T06:51:24;42.53;;;19.07;;
11829;SDS011;5972;42.134;24.718;2022-12-07T06:53:52;36.83;;;19.23;;
11829;SDS011;5972;42.134;24.718;2022-12-07T06:56:19;36.93;;;20.03;;
11829;SDS011;5972;42.134;24.718;2022-12-07T06:58:46;45.43;;;19.47;;
11829;SDS011;5972;42.134;24.718;2022-12-07T07:01:13;33.67;;;18.87;;
11829;SDS011;5972;42.134;24.718;2022-12-07T07:03:41;53.13;;;19.33;;
11829;SDS011;5972;42.134;24.718;2022-12-07T07:06:10;29.77;;;18.80;;
11829;SDS011;5972;42.134;24.718;2022-12-07T07:08:39;37.47;;;19.20;;
11829;SDS011;5972;42.134;24.718;2022-12-07T07:11:06;43.43;;;18.73;;
11829;SDS011;5972;42.134;24.718;2022-12-07T07:13:35;38.83;;;19.70;;
11829;SDS011;5972;42.134;24.718;2022-12-07T07:16:02;38.97;;;21.83;;
11829;SDS011;5972;42.134;24.718;2022-12-07T07:18:29;47.50;;;27.13;;
11829;SDS011;5972;42.134;24.718;2022-12-07T07:20:57;46.73;;;23.07;;
11829;SDS011;5972;42.134;24.718;2022-12-07T07:23:26;41.30;;;19.83;;
11829;SDS011;5972;42.134;24.718;2022-12-07T07:25:54;38.23;;;19.83;;
11829;SDS011;5972;42.134;24.718;2022-12-07T07:28:21;41.97;;;20.20;;
11829;SDS011;5972;42.134;24.718;2022-12-07T07:30:47;42.65;;;19.40;;
11829;SDS011;5972;42.134;24.718;2022-12-07T07:33:14;37.20;;;19.30;;
11829;SDS011;5972;42.134;24.718;2022-12-07T07:35:41;39.08;;;18.60;;
11829;SDS011;5972;42.134;24.718;2022-12-07T07:38:08;39.55;;;19.80;;
11829;SDS011;5972;42.134;24.718;2022-12-07T07:40:35;59.85;;;22.45;;
11829;SDS011;5972;42.134;24.718;2022-12-07T07:43:03;40.88;;;21.20;;
11829;SDS011;5972;42.134;24.718;2022-12-07T07:45:30;35.22;;;18.15;;
11829;SDS011;5972;42.134;24.718;2022-12-07T07:47:56;33.80;;;19.35;;
11829;SDS011;5972;42.134;24.718;2022-12-07T07:50:23;30.80;;;19.10;;
11829;SDS011;5972;42.134;24.718;2022-12-07T07:52:50;32.65;;;17.48;;
11829;SDS011;5972;42.134;24.718;2022-12-07T07:55:17;26.23;;;16.67;;
11829;SDS011;5972;42.134;24.718;2022-12-07T07:57:44;28.38;;;16.92;;
11829;SDS011;5972;42.134;24.718;2022-12-07T08:00:13;26.05;;;16.60;;
11829;SDS011;5972;42.134;24.718;2022-12-07T08:02:41;25.75;;;16.38;;
11829;SDS011;5972;42.134;24.718;2022-12-07T08:05:09;25.02;;;16.80;;
11829;SDS011;5972;42.134;24.718;2022-12-07T08:07:36;25.73;;;15.27;;
11829;SDS011;5972;42.134;24.718;2022-12-07T08:10:04;23.52;;;14.55;;
11829;SDS011;5972;42.134;24.718;2022-12-07T08:12:34;21.73;;;14.93;;
11829;SDS011;5972;42.134;24.718;2022-12-07T08:15:02;25.00;;;17.42;;
11829;SDS011;5972;42.134;24.718;2022-12-07T08:17:30;31.27;;;17.83;;
11829;SDS011;5972;42.134;24.718;2022-12-07T08:19:57;27.52;;;16.30;;
11829;SDS011;5972;42.134;24.718;2022-12-07T08:22:24;24.55;;;15.77;;
11829;SDS011;5972;42.134;24.718;2022-12-07T08:24:50;26.33;;;17.17;;
11829;SDS011;5972;42.134;24.718;2022-12-07T08:27:17;29.92;;;17.27;;
11829;SDS011;5972;42.134;24.718;2022-12-07T08:29:44;26.45;;;16.15;;
11829;SDS011;5972;42.134;24.718;2022-12-07T08:32:11;26.08;;;16.05;;
11829;SDS011;5972;42.134;24.718;2022-12-07T08:34:39;26.05;;;16.35;;
11829;SDS011;5972;42.134;24.718;2022-12-07T08:37:06;27.45;;;16.27;;
11829;SDS011;5972;42.134;24.718;2022-12-07T08:39:33;24.48;;;16.92;;
11829;SDS011;5972;42.134;24.718;2022-12-07T08:42:00;28.05;;;15.52;;
11829;SDS011;5972;42.134;24.718;2022-12-07T08:44:26;28.85;;;16.02;;
11829;SDS011;5972;42.134;24.718;2022-12-07T08:46:53;27.90;;;15.85;;
11829;SDS011;5972;42.134;24.718;2022-12-07T08:49:25;20.98;;;15.48;;
11829;SDS011;5972;42.134;24.718;2022-12-07T08:51:56;23.10;;;16.80;;
11829;SDS011;5972;42.134;24.718;2022-12-07T08:54:22;27.05;;;16.83;;
11829;SDS011;5972;42.134;24.718;2022-12-07T08:56:50;24.63;;;16.40;;
11829;SDS011;5972;42.134;24.718;2022-12-07T08:59:17;25.15;;;17.63;;
11829;SDS011;5972;42.134;24.718;2022-12-07T09:01:45;27.50;;;17.88;;
11829;SDS011;5972;42.134;24.718;2022-12-07T09:04:12;27.58;;;17.88;;
11829;SDS011;5972;42.134;24.718;2022-12-07T09:06:38;27.13;;;19.08;;
11829;SDS011;5972;42.134;24.718;2022-12-07T09:09:08;26.13;;;19.35;;
11829;SDS011;5972;42.134;24.718;2022-12-07T09:11:37;26.75;;;18.98;;
11829;SDS011;5972;42.134;24.718;2022-12-07T09:14:04;30.60;;;20.42;;
11829;SDS011;5972;42.134;24.718;2022-12-07T09:16:32;29.58;;;18.55;;
11829;SDS011;5972;42.134;24.718;2022-12-07T09:18:59;29.33;;;18.30;;
11829;SDS011;5972;42.134;24.718;2022-12-07T09:21:25;28.75;;;19.42;;
11829;SDS011;5972;42.134;24.718;2022-12-07T09:23:52;23.83;;;18.38;;
11829;SDS011;5972;42.134;24.718;2022-12-07T09:26:20;28.90;;;19.23;;
11829;SDS011;5972;42.134;24.718;2022-12-07T09:28:47;25.25;;;18.80;;
11829;SDS011;5972;42.134;24.718;2022-12-07T09:31:14;28.58;;;19.17;;
11829;SDS011;5972;42.134;24.718;2022-12-07T09:33:41;28.10;;;18.60;;
11829;SDS011;5972;42.134;24.718;2022-12-07T09:36:08;26.00;;;18.25;;
11829;SDS011;5972;42.134;24.718;2022-12-07T09:38:35;30.05;;;18.98;;
11829;SDS011;5972;42.134;24.718;2022-12-07T09:41:03;28.95;;;19.15;;
11829;SDS011;5972;42.134;24.718;2022-12-07T09:43:33;37.85;;;19.55;;
11829;SDS011;5972;42.134;24.718;2022-12-07T09:46:01;31.10;;;19.65;;
11829;SDS011;5972;42.134;24.718;2022-12-07T09:48:30;25.98;;;19.35;;
11829;SDS011;5972;42.134;24.718;2022-12-07T09:51:00;29.10;;;18.98;;
11829;SDS011;5972;42.134;24.718;2022-12-07T09:53:29;31.55;;;19.67;;
11829;SDS011;5972;42.134;24.718;2022-12-07T09:55:59;26.67;;;19.02;;
11829;SDS011;5972;42.134;24.718;2022-12-07T09:58:28;28.65;;;19.20;;
11829;SDS011;5972;42.134;24.718;2022-12-07T10:00:58;28.20;;;19.13;;
11829;SDS011;5972;42.134;24.718;2022-12-07T10:03:27;27.83;;;20.27;;
11829;SDS011;5972;42.134;24.718;2022-12-07T10:05:54;31.08;;;20.48;;
11829;SDS011;5972;42.134;24.718;2022-12-07T10:08:22;34.42;;;20.45;;
11829;SDS011;5972;42.134;24.718;2022-12-07T10:10:50;33.35;;;21.17;;
11829;SDS011;5972;42.134;24.718;2022-12-07T10:13:19;36.35;;;20.55;;
11829;SDS011;5972;42.134;24.718;2022-12-07T10:15:49;29.58;;;19.65;;
11829;SDS011;5972;42.134;24.718;2022-12-07T10:18:29;29.15;;;18.00;;
11829;SDS011;5972;42.134;24.718;2022-12-07T10:21:02;27.10;;;17.50;;
11829;SDS011;5972;42.134;24.718;2022-12-07T10:23:37;24.25;;;15.82;;
11829;SDS011;5972;42.134;24.718;2022-12-07T10:26:26;25.42;;;15.18;;
11829;SDS011;5972;42.134;24.718;2022-12-07T10:28:55;25.65;;;16.35;;
11829;SDS011;5972;42.134;24.718;2022-12-07T10:31:25;29.38;;;18.05;;
11829;SDS011;5972;42.134;24.718;2022-12-07T10:33:53;35.33;;;17.92;;
11829;SDS011;5972;42.134;24.718;2022-12-07T10:36:23;27.27;;;16.10;;
11829;SDS011;5972;42.134;24.718;2022-12-07T10:38:52;25.80;;;15.40;;
11829;SDS011;5972;42.134;24.718;2022-12-07T10:41:24;29.33;;;17.08;;
11829;SDS011;5972;42.134;24.718;2022-12-07T10:43:52;28.08;;;16.13;;
11829;SDS011;5972;42.134;24.718;2022-12-07T10:52:42;26.05;;;13.95;;
11829;SDS011;5972;42.134;24.718;2022-12-07T10:55:20;25.15;;;17.52;;
11829;SDS011;5972;42.134;24.718;2022-12-07T10:58:03;32.60;;;17.80;;
11829;SDS011;5972;42.134;24.718;2022-12-07T11:00:53;29.85;;;18.92;;
11829;SDS011;5972;42.134;24.718;2022-12-07T11:03:37;28.40;;;18.05;;
11829;SDS011;5972;42.134;24.718;2022-12-07T11:06:17;23.52;;;14.43;;
11829;SDS011;5972;42.134;24.718;2022-12-07T11:08:54;27.67;;;13.13;;
11829;SDS011;5972;42.134;24.718;2022-12-07T11:11:30;26.73;;;16.15;;
11829;SDS011;5972;42.134;24.718;2022-12-07T11:14:03;27.42;;;15.13;;
11829;SDS011;5972;42.134;24.718;2022-12-07T11:16:41;23.63;;;15.23;;
11829;SDS011;5972;42.134;24.718;2022-12-07T11:19:28;44.20;;;22.45;;
11829;SDS011;5972;42.134;24.718;2022-12-07T11:22:16;21.80;;;14.60;;
11829;SDS011;5972;42.134;24.718;2022-12-07T11:24:49;21.98;;;14.75;;
11829;SDS011;5972;42.134;24.718;2022-12-07T11:27:24;21.88;;;14.20;;
11829;SDS011;5972;42.134;24.718;2022-12-07T11:30:06;23.27;;;14.02;;
11829;SDS011;5972;42.134;24.718;2022-12-07T11:32:49;20.63;;;13.32;;
11829;SDS011;5972;42.134;24.718;2022-12-07T11:35:24;21.45;;;11.30;;
11829;SDS011;5972;42.134;24.718;2022-12-07T11:38:00;26.52;;;13.20;;
11829;SDS011;5972;42.134;24.718;2022-12-07T11:40:39;26.80;;;12.52;;
11829;SDS011;5972;42.134;24.718;2022-12-07T11:43:13;22.05;;;12.13;;
11829;SDS011;5972;42.134;24.718;2022-12-07T11:45:46;26.88;;;12.88;;
11829;SDS011;5972;42.134;24.718;2022-12-07T11:48:20;23.88;;;14.52;;
11829;SDS011;5972;42.134;24.718;2022-12-07T11:50:56;25.63;;;13.90;;
11829;SDS011;5972;42.134;24.718;2022-12-07T11:53:25;21.77;;;12.60;;
11829;SDS011;5972;42.134;24.718;2022-12-07T11:55:56;22.13;;;13.25;;
11829;SDS011;5972;42.134;24.718;2022-12-07T11:58:35;26.45;;;12.52;;
11829;SDS011;5972;42.134;24.718;2022-12-07T12:01:11;20.02;;;12.05;;
11829;SDS011;5972;42.134;24.718;2022-12-07T12:03:46;19.88;;;13.30;;
11829;SDS011;5972;42.134;24.718;2022-12-07T12:06:15;22.25;;;12.93;;
11829;SDS011;5972;42.134;24.718;2022-12-07T12:08:43;23.60;;;13.70;;
11829;SDS011;5972;42.134;24.718;2022-12-07T12:11:18;28.58;;;14.88;;
11829;SDS011;5972;42.134;24.718;2022-12-07T12:16:57;20.77;;;13.05;;
11829;SDS011;5972;42.134;24.718;2022-12-07T12:19:40;27.67;;;14.02;;
11829;SDS011;5972;42.134;24.718;2022-12-07T12:22:10;27.20;;;13.57;;
11829;SDS011;5972;42.134;24.718;2022-12-07T12:24:42;20.60;;;12.65;;
11829;SDS011;5972;42.134;24.718;2022-12-07T12:27:17;22.90;;;13.35;;
11829;SDS011;5972;42.134;24.718;2022-12-07T12:29:52;23.58;;;12.40;;
11829;SDS011;5972;42.134;24.718;2022-12-07T12:32:21;19.45;;;12.18;;
11829;SDS011;5972;42.134;24.718;2022-12-07T12:35:02;20.25;;;13.27;;
11829;SDS011;5972;42.134;24.718;2022-12-07T12:37:48;18.73;;;12.57;;
11829;SDS011;5972;42.134;24.718;2022-12-07T12:55:15;21.40;;;14.00;;
11829;SDS011;5972;42.134;24.718;2022-12-07T12:57:46;24.70;;;15.15;;
11829;SDS011;5972;42.134;24.718;2022-12-07T13:00:18;21.55;;;14.38;;
11829;SDS011;5972;42.134;24.718;2022-12-07T13:02:50;26.35;;;14.93;;
11829;SDS011;5972;42.134;24.718;2022-12-07T13:05:19;25.30;;;15.10;;
11829;SDS011;5972;42.134;24.718;2022-12-07T13:07:52;20.45;;;14.40;;
11829;SDS011;5972;42.134;24.718;2022-12-07T13:10:24;23.75;;;14.43;;
11829;SDS011;5972;42.134;24.718;2022-12-07T13:13:01;21.83;;;14.45;;
11829;SDS011;5972;42.134;24.718;2022-12-07T13:15:31;23.55;;;15.32;;
11829;SDS011;5972;42.134;24.718;2022-12-07T13:18:04;24.77;;;14.25;;
11829;SDS011;5972;42.134;24.718;2022-12-07T13:20:51;26.67;;;13.80;;
11829;SDS011;5972;42.134;24.718;2022-12-07T13:23:20;25.15;;;14.27;;
11829;SDS011;5972;42.134;24.718;2022-12-07T13:25:51;21.52;;;13.05;;
11829;SDS011;5972;42.134;24.718;2022-12-07T13:28:26;19.35;;;11.75;;
11829;SDS011;5972;42.134;24.718;2022-12-07T13:31:09;20.52;;;12.32;;
11829;SDS011;5972;42.134;24.718;2022-12-07T13:33:44;18.98;;;12.23;;
11829;SDS011;5972;42.134;24.718;2022-12-07T13:36:14;21.40;;;13.00;;
11829;SDS011;5972;42.134;24.718;2022-12-07T13:38:48;20.45;;;11.82;;
11829;SDS011;5972;42.134;24.718;2022-12-07T13:41:17;20.90;;;12.27;;
11829;SDS011;5972;42.134;24.718;2022-12-07T13:43:48;24.05;;;11.98;;
11829;SDS011;5972;42.134;24.718;2022-12-07T13:46:18;21.98;;;11.48;;
11829;SDS011;5972;42.134;24.718;2022-12-07T13:48:52;19.23;;;11.75;;
11829;SDS011;5972;42.134;24.718;2022-12-07T13:51:21;23.63;;;12.05;;
11829;SDS011;5972;42.134;24.718;2022-12-07T13:53:50;21.20;;;12.38;;
11829;SDS011;5972;42.134;24.718;2022-12-07T13:56:20;27.55;;;12.48;;
11829;SDS011;5972;42.134;24.718;2022-12-07T13:58:48;18.13;;;11.85;;
11829;SDS011;5972;42.134;24.718;2022-12-07T14:01:15;21.63;;;12.23;;
11829;SDS011;5972;42.134;24.718;2022-12-07T14:03:43;26.52;;;12.68;;
11829;SDS011;5972;42.134;24.718;2022-12-07T14:06:22;23.08;;;12.88;;
11829;SDS011;5972;42.134;24.718;2022-12-07T14:09:06;23.55;;;13.45;;
11829;SDS011;5972;42.134;24.718;2022-12-07T14:11:33;26.08;;;15.05;;
11829;SDS011;5972;42.134;24.718;2022-12-07T14:14:01;20.20;;;13.35;;
11829;SDS011;5972;42.134;24.718;2022-12-07T14:16:30;21.63;;;13.77;;
11829;SDS011;5972;42.134;24.718;2022-12-07T14:18:58;25.10;;;13.32;;
11829;SDS011;5972;42.134;24.718;2022-12-07T14:21:29;30.00;;;14.50;;
11829;SDS011;5972;42.134;24.718;2022-12-07T14:26:45;29.80;;;13.68;;
11829;SDS011;5972;42.134;24.718;2022-12-07T14:29:20;23.88;;;13.20;;
11829;SDS011;5972;42.134;24.718;2022-12-07T14:31:58;27.17;;;13.52;;
11829;SDS011;5972;42.134;24.718;2022-12-07T14:34:40;28.42;;;14.57;;
11829;SDS011;5972;42.134;24.718;2022-12-07T14:37:08;29.13;;;16.85;;
11829;SDS011;5972;42.134;24.718;2022-12-07T14:39:36;35.33;;;20.55;;
11829;SDS011;5972;42.134;24.718;2022-12-07T14:42:02;36.47;;;20.17;;
11829;SDS011;5972;42.134;24.718;2022-12-07T14:44:29;40.58;;;21.20;;
11829;SDS011;5972;42.134;24.718;2022-12-07T14:46:56;41.33;;;25.13;;
11829;SDS011;5972;42.134;24.718;2022-12-07T14:49:23;37.67;;;24.00;;
11829;SDS011;5972;42.134;24.718;2022-12-07T14:51:50;44.28;;;22.98;;
11829;SDS011;5972;42.134;24.718;2022-12-07T14:54:18;39.90;;;21.23;;
11829;SDS011;5972;42.134;24.718;2022-12-07T14:56:46;35.03;;;17.52;;
11829;SDS011;5972;42.134;24.718;2022-12-07T14:59:14;32.50;;;18.17;;
11829;SDS011;5972;42.134;24.718;2022-12-07T15:01:41;35.17;;;18.17;;
11829;SDS011;5972;42.134;24.718;2022-12-07T15:04:08;38.28;;;21.67;;
11829;SDS011;5972;42.134;24.718;2022-12-07T15:06:35;38.53;;;22.15;;
11829;SDS011;5972;42.134;24.718;2022-12-07T15:09:02;54.50;;;25.90;;